createdAt,value
2022-11-12T00:01:35.053Z,2.40
2022-11-12T00:04:20.195Z,2.60
2022-11-12T00:07:05.333Z,2.80
2022-11-12T00:09:50.436Z,2.80
2022-11-12T00:12:35.613Z,2.40
2022-11-12T00:15:20.869Z,2.10
2022-11-12T00:18:07.364Z,1.90
2022-11-12T00:20:52.563Z,1.80
2022-11-12T00:23:37.966Z,1.70
2022-11-12T00:26:23.064Z,2.00
2022-11-12T00:29:08.244Z,2.20
2022-11-12T00:31:53.353Z,2.00
2022-11-12T00:34:38.582Z,1.80
2022-11-12T00:37:25.157Z,2.00
2022-11-12T00:40:10.483Z,1.80
2022-11-12T00:42:55.814Z,2.00
2022-11-12T00:45:42.608Z,2.30
2022-11-12T00:48:28.042Z,2.30
2022-11-12T00:51:13.502Z,2.10
2022-11-12T00:53:58.610Z,1.90
2022-11-12T00:56:45.947Z,2.30
2022-11-12T00:59:31.439Z,2.10
2022-11-12T01:02:16.641Z,2.20
2022-11-12T01:05:01.716Z,2.00
2022-11-12T01:07:49.395Z,2.00
2022-11-12T01:10:38.389Z,1.90
2022-11-12T01:13:23.600Z,2.00
2022-11-12T01:16:13.738Z,2.30
2022-11-12T01:19:00.292Z,2.30
2022-11-12T01:21:45.505Z,2.30
2022-11-12T01:24:30.783Z,2.70
2022-11-12T01:27:15.932Z,2.60
2022-11-12T01:30:01.135Z,2.60
2022-11-12T01:32:46.266Z,2.50
2022-11-12T01:35:31.507Z,2.40
2022-11-12T01:38:16.566Z,2.50
2022-11-12T01:41:02.026Z,2.80
2022-11-12T01:43:47.099Z,2.50
2022-11-12T01:46:33.454Z,2.40
2022-11-12T01:49:20.858Z,2.70
2022-11-12T01:52:12.071Z,2.80
2022-11-12T01:55:00.726Z,2.50
2022-11-12T01:57:48.698Z,2.70
2022-11-12T02:00:33.886Z,2.80
2022-11-12T02:03:20.331Z,2.90
2022-11-12T02:06:09.264Z,3.10
2022-11-12T02:08:54.618Z,3.00
2022-11-12T02:11:39.830Z,2.60
2022-11-12T02:14:25.055Z,2.50
2022-11-12T02:17:10.001Z,2.50
2022-11-12T02:19:58.359Z,2.80
2022-11-12T02:22:43.850Z,3.00
2022-11-12T02:25:29.454Z,3.00
2022-11-12T02:28:15.408Z,2.80
2022-11-12T02:31:00.559Z,2.80
2022-11-12T02:33:45.896Z,2.70
2022-11-12T02:36:31.107Z,2.90
2022-11-12T02:39:16.274Z,3.00
2022-11-12T02:42:01.278Z,2.90
2022-11-12T02:44:46.562Z,3.10
2022-11-12T02:47:31.540Z,3.00
2022-11-12T02:50:16.849Z,3.10
2022-11-12T02:53:02.328Z,2.90
2022-11-12T02:55:47.443Z,2.70
2022-11-12T02:58:32.661Z,2.90
2022-11-12T03:01:17.819Z,2.60
2022-11-12T03:04:02.872Z,2.50
2022-11-12T03:06:48.038Z,2.50
2022-11-12T03:09:34.206Z,2.70
2022-11-12T03:12:19.653Z,2.90
2022-11-12T03:15:05.463Z,2.80
2022-11-12T03:17:50.653Z,2.80
2022-11-12T03:20:35.797Z,2.70
2022-11-12T03:23:20.923Z,2.70
2022-11-12T03:26:06.169Z,2.80
2022-11-12T03:28:51.637Z,3.00
2022-11-12T03:31:36.725Z,3.00
2022-11-12T03:34:21.693Z,2.60
2022-11-12T03:37:09.665Z,2.80
2022-11-12T03:39:54.845Z,2.80
2022-11-12T03:42:44.638Z,2.80
2022-11-12T03:45:30.112Z,2.90
2022-11-12T03:48:15.258Z,2.90
2022-11-12T03:51:00.221Z,2.60
2022-11-12T03:53:45.365Z,2.30
2022-11-12T03:56:30.451Z,2.20
2022-11-12T03:59:15.621Z,2.10
2022-11-12T04:02:00.652Z,2.10
2022-11-12T04:05:04.752Z,2.30
2022-11-12T04:08:14.639Z,2.30
2022-11-12T04:11:00.334Z,2.40
2022-11-12T04:13:47.547Z,2.30
2022-11-12T04:16:51.338Z,2.60
2022-11-12T04:19:55.519Z,2.70
2022-11-12T04:22:41.011Z,2.80
2022-11-12T04:25:44.858Z,2.90
2022-11-12T04:28:30.174Z,2.70
2022-11-12T04:31:15.418Z,2.50
2022-11-12T04:34:20.557Z,2.30
2022-11-12T04:37:06.074Z,2.50
2022-11-12T04:39:51.370Z,2.60
2022-11-12T04:42:55.640Z,2.40
2022-11-12T04:45:41.883Z,2.30
2022-11-12T04:48:27.277Z,2.50
2022-11-12T04:51:31.512Z,2.60
2022-11-12T04:54:16.754Z,2.80
2022-11-12T04:57:01.987Z,2.80
2022-11-12T04:59:47.247Z,2.50
2022-11-12T05:02:32.722Z,2.20
2022-11-12T05:05:18.088Z,2.00
2022-11-12T05:08:03.549Z,2.10
2022-11-12T05:10:48.547Z,2.10
2022-11-12T05:13:33.575Z,1.80
2022-11-12T05:16:18.775Z,1.70
2022-11-12T05:19:04.032Z,1.70
2022-11-12T05:22:17.497Z,1.80
2022-11-12T05:25:12.413Z,1.90
2022-11-12T05:27:57.473Z,2.00
2022-11-12T05:30:42.785Z,2.00
2022-11-12T05:33:28.323Z,2.10
2022-11-12T05:36:13.362Z,2.30
2022-11-12T05:38:58.407Z,2.30
2022-11-12T05:42:10.905Z,2.30
2022-11-12T05:44:49.252Z,2.10
2022-11-12T05:47:34.256Z,2.10
2022-11-12T05:50:19.469Z,2.20
2022-11-12T05:53:04.494Z,2.20
2022-11-12T05:55:49.644Z,2.30
2022-11-12T05:58:35.692Z,2.20
2022-11-12T06:01:21.003Z,2.40
2022-11-12T06:04:05.906Z,2.60
2022-11-12T06:06:51.224Z,2.70
2022-11-12T06:09:36.223Z,2.80
2022-11-12T06:12:21.453Z,2.80
2022-11-12T06:15:07.220Z,2.90
2022-11-12T06:17:53.113Z,2.90
2022-11-12T06:20:38.374Z,2.70
2022-11-12T06:23:23.402Z,2.80
2022-11-12T06:26:08.600Z,3.00
2022-11-12T06:28:53.785Z,2.90
2022-11-12T06:31:38.839Z,2.70
2022-11-12T06:34:24.062Z,2.60
2022-11-12T06:37:09.166Z,2.80
2022-11-12T06:39:54.281Z,2.90
2022-11-12T06:42:39.379Z,3.20
2022-11-12T06:45:25.052Z,3.40
2022-11-12T06:48:10.325Z,3.30
2022-11-12T06:50:55.932Z,3.00
2022-11-12T06:53:41.259Z,2.90
2022-11-12T06:56:27.496Z,2.70
2022-11-12T06:59:13.140Z,2.50
2022-11-12T07:01:58.303Z,2.40
2022-11-12T07:04:43.642Z,2.40
2022-11-12T07:07:29.557Z,2.60
2022-11-12T07:10:14.789Z,2.70
2022-11-12T07:13:00.039Z,2.90
2022-11-12T07:15:44.986Z,3.00
2022-11-12T07:18:30.586Z,3.10
2022-11-12T07:21:16.998Z,2.90
2022-11-12T07:24:02.295Z,2.80
2022-11-12T07:26:47.914Z,3.10
2022-11-12T07:29:46.954Z,3.50
2022-11-12T07:32:35.309Z,3.40
2022-11-12T07:35:23.920Z,3.60
2022-11-12T07:38:09.170Z,3.50
2022-11-12T07:41:23.964Z,3.70
2022-11-12T07:44:09.688Z,3.90
2022-11-12T07:46:54.931Z,3.90
2022-11-12T07:49:40.184Z,3.80
2022-11-12T07:52:25.247Z,3.90
2022-11-12T07:55:10.672Z,3.90
2022-11-12T07:57:58.654Z,4.20
2022-11-12T08:00:43.705Z,4.20
2022-11-12T08:03:28.837Z,4.20
2022-11-12T08:06:14.065Z,4.10
2022-11-12T08:09:00.388Z,4.30
2022-11-12T08:11:45.733Z,4.70
2022-11-12T08:14:30.830Z,4.80
2022-11-12T08:17:17.193Z,4.90
2022-11-12T08:20:02.632Z,4.70
2022-11-12T08:22:49.523Z,4.40
2022-11-12T08:25:35.671Z,4.40
2022-11-12T08:28:22.548Z,4.40
2022-11-12T08:31:16.405Z,4.50
2022-11-12T08:34:11.968Z,4.80
2022-11-12T08:36:57.217Z,4.90
2022-11-12T08:39:42.511Z,4.80
2022-11-12T08:42:27.553Z,4.80
2022-11-12T08:45:12.786Z,4.90
2022-11-12T08:48:01.859Z,5.00
2022-11-12T08:50:47.235Z,4.90
2022-11-12T08:53:32.846Z,4.90
2022-11-12T08:56:18.177Z,5.10
2022-11-12T08:59:07.206Z,5.00
2022-11-12T09:01:52.837Z,5.00
2022-11-12T09:04:38.252Z,5.10
2022-11-12T09:07:51.605Z,5.20
2022-11-12T09:10:29.622Z,5.50
2022-11-12T09:13:17.146Z,5.60
2022-11-12T09:16:03.269Z,6.00
2022-11-12T09:18:48.806Z,5.90
2022-11-12T09:21:34.093Z,5.90
2022-11-12T09:24:19.178Z,5.70
2022-11-12T09:27:04.579Z,6.10
2022-11-12T09:29:49.706Z,6.40
2022-11-12T09:32:35.085Z,6.30
2022-11-12T09:35:20.229Z,6.60
2022-11-12T09:38:05.378Z,6.60
2022-11-12T09:40:53.495Z,6.90
2022-11-12T09:43:42.712Z,6.70
2022-11-12T09:46:43.162Z,6.50
2022-11-12T09:49:31.203Z,6.50
2022-11-12T09:52:18.704Z,7.00
2022-11-12T09:55:07.837Z,7.00
2022-11-12T09:57:52.780Z,6.90
2022-11-12T10:00:43.829Z,7.00
2022-11-12T10:03:37.502Z,7.20
2022-11-12T10:06:24.675Z,7.80
2022-11-12T10:09:13.863Z,7.60
2022-11-12T10:12:30.325Z,7.20
2022-11-12T10:15:34.468Z,7.40
2022-11-12T10:18:32.119Z,7.00
2022-11-12T10:21:23.230Z,7.40
2022-11-12T10:24:10.070Z,7.60
2022-11-12T10:26:57.199Z,7.20
2022-11-12T10:29:49.166Z,7.80
2022-11-12T10:32:35.539Z,8.00
2022-11-12T10:35:22.070Z,7.60
2022-11-12T10:38:11.895Z,7.40
2022-11-12T10:40:56.998Z,7.40
2022-11-12T10:43:52.575Z,7.70
2022-11-12T10:46:38.167Z,7.70
2022-11-12T10:49:24.586Z,7.60
2022-11-12T10:52:23.573Z,7.40
2022-11-12T10:55:17.886Z,7.50
2022-11-12T10:58:06.418Z,7.90
2022-11-12T11:00:56.383Z,7.70
2022-11-12T11:03:47.408Z,7.50
2022-11-12T11:06:33.073Z,7.60
2022-11-12T11:09:21.532Z,7.90
2022-11-12T11:12:21.899Z,7.90
2022-11-12T11:15:07.399Z,7.90
2022-11-12T11:17:52.733Z,8.00
2022-11-12T11:20:43.565Z,8.00
2022-11-12T11:23:33.065Z,8.10
2022-11-12T11:26:47.775Z,8.10
2022-11-12T11:29:39.500Z,8.10
2022-11-12T11:32:24.477Z,8.30
2022-11-12T11:35:18.729Z,8.10
2022-11-12T11:38:06.960Z,8.30
2022-11-12T11:41:01.057Z,8.10
2022-11-12T11:44:06.819Z,8.10
2022-11-12T11:47:02.843Z,8.30
2022-11-12T11:50:08.162Z,8.50
2022-11-12T11:53:12.106Z,8.40
2022-11-12T11:55:59.780Z,8.30
2022-11-12T11:58:50.983Z,8.20
2022-11-12T12:01:52.648Z,8.40
2022-11-12T12:04:54.697Z,8.20
2022-11-12T12:07:55.786Z,8.40
2022-11-12T12:11:06.760Z,8.30
2022-11-12T12:13:49.707Z,8.50
2022-11-12T12:16:53.800Z,8.40
2022-11-12T12:19:49.135Z,8.40
2022-11-12T12:22:51.936Z,8.50
2022-11-12T12:25:40.391Z,8.40
2022-11-12T12:28:34.984Z,8.50
2022-11-12T12:31:22.785Z,8.60
2022-11-12T12:34:14.396Z,8.30
2022-11-12T12:37:10.455Z,8.20
2022-11-12T12:40:03.386Z,8.40
2022-11-12T12:42:52.447Z,8.30
2022-11-12T12:45:44.775Z,8.50
2022-11-12T12:48:34.577Z,8.60
2022-11-12T12:51:20.111Z,8.60
2022-11-12T12:54:25.507Z,8.50
2022-11-12T12:57:26.250Z,8.60
2022-11-12T13:00:28.704Z,8.40
2022-11-12T13:03:34.208Z,8.70
2022-11-12T13:06:25.668Z,8.70
2022-11-12T13:09:14.784Z,8.70
2022-11-12T13:12:06.086Z,8.60
2022-11-12T13:14:52.610Z,8.60
2022-11-12T13:17:45.655Z,8.50
2022-11-12T13:20:35.555Z,8.50
2022-11-12T13:24:05.961Z,8.50
2022-11-12T13:26:58.468Z,8.50
2022-11-12T13:29:44.531Z,8.60
2022-11-12T13:32:32.260Z,8.40
2022-11-12T13:35:23.926Z,8.60
2022-11-12T13:38:09.203Z,8.60
2022-11-12T13:41:13.176Z,8.60
2022-11-12T13:43:58.311Z,8.60
2022-11-12T13:46:44.580Z,8.50
2022-11-12T13:49:29.903Z,8.50
2022-11-12T13:52:16.091Z,8.40
2022-11-12T13:55:06.174Z,8.40
2022-11-12T13:57:52.533Z,8.40
2022-11-12T14:00:37.794Z,8.10
2022-11-12T14:03:24.280Z,8.10
2022-11-12T14:06:20.364Z,8.00
2022-11-12T14:09:38.835Z,8.10
2022-11-12T14:12:29.945Z,7.80
2022-11-12T14:15:33.821Z,7.70
2022-11-12T14:18:39.370Z,7.80
2022-11-12T14:21:24.742Z,7.70
2022-11-12T14:24:10.980Z,7.70
2022-11-12T14:26:56.312Z,7.60
2022-11-12T14:29:43.845Z,7.70
2022-11-12T14:32:34.951Z,7.70
2022-11-12T14:35:20.550Z,7.70
2022-11-12T14:38:14.637Z,7.70
2022-11-12T14:41:18.373Z,7.50
2022-11-12T14:44:13.021Z,7.40
2022-11-12T14:46:59.056Z,7.30
2022-11-12T14:49:46.600Z,7.30
2022-11-12T14:52:35.351Z,7.10
2022-11-12T14:55:22.517Z,7.10
2022-11-12T14:58:11.760Z,7.20
2022-11-12T15:00:57.179Z,7.20
2022-11-12T15:03:42.419Z,7.30
2022-11-12T15:06:31.952Z,7.30
2022-11-12T15:09:32.260Z,7.20
2022-11-12T15:12:21.967Z,7.10
2022-11-12T15:15:08.424Z,7.00
2022-11-12T15:18:00.683Z,6.70
2022-11-12T15:20:47.100Z,6.70
2022-11-12T15:23:32.717Z,6.80
2022-11-12T15:26:35.020Z,6.60
2022-11-12T15:29:25.555Z,6.70
2022-11-12T15:32:13.699Z,6.70
2022-11-12T15:34:59.435Z,6.40
2022-11-12T15:37:44.874Z,6.60
2022-11-12T15:40:31.706Z,6.50
2022-11-12T15:43:23.054Z,6.60
2022-11-12T15:46:13.816Z,6.70
2022-11-12T15:48:59.131Z,6.50
2022-11-12T15:51:44.310Z,6.40
2022-11-12T15:54:29.476Z,6.30
2022-11-12T15:57:25.188Z,6.40
2022-11-12T16:00:14.731Z,6.30
2022-11-12T16:03:03.896Z,6.30
2022-11-12T16:05:49.333Z,6.30
2022-11-12T16:08:34.446Z,6.30
2022-11-12T16:11:38.031Z,6.40
2022-11-12T16:14:25.558Z,6.50
2022-11-12T16:17:15.030Z,6.60
2022-11-12T16:20:01.163Z,6.70
2022-11-12T16:22:46.878Z,6.70
2022-11-12T16:25:33.348Z,6.50
2022-11-12T16:28:20.349Z,6.40
2022-11-12T16:31:06.628Z,6.50
2022-11-12T16:33:52.516Z,6.50
2022-11-12T16:36:39.024Z,6.30
2022-11-12T16:39:24.431Z,6.40
2022-11-12T16:42:10.338Z,6.20
2022-11-12T16:44:55.367Z,6.30
2022-11-12T16:47:48.491Z,6.40
2022-11-12T16:50:33.911Z,6.50
2022-11-12T16:53:19.094Z,6.20
2022-11-12T16:56:04.350Z,6.00
2022-11-12T16:58:49.750Z,6.10
2022-11-12T17:01:35.200Z,6.30
2022-11-12T17:04:21.217Z,6.40
2022-11-12T17:07:06.523Z,6.20
2022-11-12T17:09:52.874Z,6.10
2022-11-12T17:12:38.001Z,6.20
2022-11-12T17:15:23.143Z,6.10
2022-11-12T17:18:09.626Z,6.20
2022-11-12T17:20:54.985Z,6.10
2022-11-12T17:23:42.629Z,6.20
2022-11-12T17:26:27.870Z,6.00
2022-11-12T17:29:13.026Z,6.00
2022-11-12T17:31:58.124Z,6.00
2022-11-12T17:34:43.372Z,6.10
2022-11-12T17:37:28.415Z,5.90
2022-11-12T17:40:13.868Z,6.00
2022-11-12T17:42:59.157Z,5.90
2022-11-12T17:45:54.091Z,6.00
2022-11-12T17:48:39.398Z,6.20
2022-11-12T17:51:25.861Z,6.20
2022-11-12T17:54:10.890Z,6.30
2022-11-12T17:56:55.907Z,6.30
2022-11-12T17:59:40.966Z,6.10
2022-11-12T18:02:26.398Z,6.30
2022-11-12T18:05:12.029Z,6.20
2022-11-12T18:07:57.221Z,6.10
2022-11-12T18:10:45.142Z,5.50
2022-11-12T18:13:30.678Z,5.50
2022-11-12T18:16:17.127Z,5.60
2022-11-12T18:19:02.822Z,6.00
2022-11-12T18:21:47.917Z,5.80
2022-11-12T18:24:33.244Z,5.80
2022-11-12T18:27:19.184Z,5.80
2022-11-12T18:30:04.685Z,5.70
2022-11-12T18:32:50.077Z,5.80
2022-11-12T18:35:35.331Z,5.80
2022-11-12T18:38:20.464Z,5.80
2022-11-12T18:41:05.666Z,5.60
2022-11-12T18:43:51.214Z,5.60
2022-11-12T18:46:36.220Z,5.90
2022-11-12T18:49:21.437Z,5.90
2022-11-12T18:52:06.539Z,6.00
2022-11-12T18:54:51.574Z,5.70
2022-11-12T18:57:36.988Z,5.80
2022-11-12T19:00:22.170Z,5.80
2022-11-12T19:03:07.363Z,5.40
2022-11-12T19:05:57.552Z,5.70
2022-11-12T19:08:42.589Z,5.80
2022-11-12T19:11:27.697Z,5.70
2022-11-12T19:14:12.945Z,5.70
2022-11-12T19:16:57.991Z,5.80
2022-11-12T19:19:43.257Z,5.80
2022-11-12T19:22:28.341Z,5.50
2022-11-12T19:25:13.643Z,5.30
2022-11-12T19:27:58.772Z,5.70
2022-11-12T19:30:43.834Z,5.40
2022-11-12T19:33:29.041Z,5.40
2022-11-12T19:36:25.023Z,5.70
2022-11-12T19:39:10.564Z,5.80
2022-11-12T19:41:55.849Z,5.90
2022-11-12T19:44:41.088Z,5.60
2022-11-12T19:47:26.083Z,5.80
2022-11-12T19:50:11.321Z,5.80
2022-11-12T19:52:56.652Z,5.80
2022-11-12T19:55:42.013Z,5.70
2022-11-12T19:58:27.486Z,5.70
2022-11-12T20:01:14.280Z,5.70
2022-11-12T20:03:59.795Z,5.70
2022-11-12T20:06:44.791Z,5.80
2022-11-12T20:09:30.031Z,5.90
2022-11-12T20:12:15.127Z,5.70
2022-11-12T20:15:00.137Z,5.60
2022-11-12T20:17:45.481Z,5.50
2022-11-12T20:20:30.552Z,5.40
2022-11-12T20:23:15.675Z,5.40
2022-11-12T20:26:02.157Z,5.20
2022-11-12T20:28:47.705Z,5.40
2022-11-12T20:31:33.293Z,5.20
2022-11-12T20:34:18.707Z,4.90
2022-11-12T20:37:03.696Z,5.20
2022-11-12T20:39:48.944Z,5.40
2022-11-12T20:42:34.112Z,5.10
2022-11-12T20:45:19.227Z,4.80
2022-11-12T20:48:04.557Z,4.80
2022-11-12T20:51:16.867Z,4.70
2022-11-12T20:53:59.923Z,4.80
2022-11-12T20:56:45.941Z,4.70
2022-11-12T20:59:31.578Z,4.80
2022-11-12T21:02:16.878Z,4.90
2022-11-12T21:05:02.006Z,4.80
2022-11-12T21:07:47.456Z,4.80
2022-11-12T21:10:32.690Z,5.00
2022-11-12T21:13:18.213Z,4.80
2022-11-12T21:16:03.981Z,5.10
2022-11-12T21:18:49.370Z,4.80
2022-11-12T21:21:34.679Z,4.90
2022-11-12T21:24:20.167Z,5.00
2022-11-12T21:27:05.408Z,4.70
2022-11-12T21:29:50.754Z,5.00
2022-11-12T21:32:36.180Z,5.10
2022-11-12T21:35:21.431Z,4.90
2022-11-12T21:38:06.375Z,4.90
2022-11-12T21:40:51.624Z,4.60
2022-11-12T21:43:37.368Z,4.80
2022-11-12T21:46:23.575Z,4.70
2022-11-12T21:49:08.576Z,4.60
2022-11-12T21:51:53.636Z,4.30
2022-11-12T21:54:39.252Z,4.30
2022-11-12T21:57:24.235Z,4.50
2022-11-12T22:00:39.931Z,4.30
2022-11-12T22:03:14.979Z,4.40
2022-11-12T22:06:00.565Z,4.50
2022-11-12T22:08:46.130Z,4.00
2022-11-12T22:11:31.196Z,4.00
2022-11-12T22:14:16.497Z,4.00
2022-11-12T22:17:01.848Z,3.90
2022-11-12T22:19:47.205Z,3.90
2022-11-12T22:22:32.370Z,3.90
2022-11-12T22:25:17.439Z,3.80
2022-11-12T22:28:02.716Z,3.90
2022-11-12T22:30:47.925Z,3.80
2022-11-12T22:33:33.436Z,3.80
2022-11-12T22:36:22.953Z,4.00
2022-11-12T22:39:08.048Z,3.90
2022-11-12T22:41:53.153Z,4.00
2022-11-12T22:44:38.445Z,4.10
2022-11-12T22:47:23.561Z,3.90
2022-11-12T22:50:09.269Z,4.10
2022-11-12T22:52:57.541Z,4.00
2022-11-12T22:55:42.722Z,4.10
2022-11-12T22:58:28.219Z,4.00
2022-11-12T23:01:18.443Z,4.10
2022-11-12T23:04:05.191Z,3.90
2022-11-12T23:06:50.530Z,3.70
2022-11-12T23:09:35.820Z,3.50
2022-11-12T23:12:21.025Z,3.40
2022-11-12T23:15:06.577Z,3.40
2022-11-12T23:17:51.638Z,3.50
2022-11-12T23:20:37.261Z,3.80
2022-11-12T23:23:22.645Z,3.80
2022-11-12T23:26:09.713Z,4.00
2022-11-12T23:28:55.244Z,3.80
2022-11-12T23:31:40.187Z,3.70
2022-11-12T23:34:25.339Z,3.70
2022-11-12T23:37:10.395Z,4.00
2022-11-12T23:39:55.719Z,3.90
2022-11-12T23:42:40.943Z,3.70
2022-11-12T23:45:26.142Z,3.90
2022-11-12T23:48:11.174Z,3.70
2022-11-12T23:51:00.824Z,3.90
2022-11-12T23:53:46.057Z,3.80
2022-11-12T23:56:31.713Z,3.70
2022-11-12T23:59:16.896Z,4.00
